Time;durP1;ratioP1;P1;durP2;ratioP2;P2;SDS_P1;SDS_P2;PMS_P1;PMS_P2;Temp;Humidity;BMP_temperature;BMP_pressure;BME280_temperature;BME280_humidity;BME280_pressure;Samples;Min_cycle;Max_cycle;Signal;HPM_P1;HPM_P2
2022/06/14 00:01:27;;;;;;;2.30;1.47;;;15.00;99.90;;;;;;5048936;28;20444;-49
2022/06/14 00:03:53;;;;;;;3.10;1.67;;;15.00;99.90;;;;;;5050772;28;20465;-40
2022/06/14 00:06:23;;;;;;;2.33;1.67;;;15.00;99.90;;;;;;5055766;28;20445;-39
2022/06/14 00:08:51;;;;;;;2.33;1.60;;;14.90;99.90;;;;;;5056265;28;20567;-38
2022/06/14 00:11:20;;;;;;;3.00;1.47;;;14.90;99.90;;;;;;5055066;28;20417;-38
2022/06/14 00:13:48;;;;;;;3.57;2.10;;;14.80;99.90;;;;;;5055649;28;20443;-37
2022/06/14 00:16:18;;;;;;;3.30;1.60;;;14.80;99.90;;;;;;5055959;28;20571;-38
2022/06/14 00:18:44;;;;;;;6.97;1.60;;;14.80;99.90;;;;;;5055544;28;20452;-38
2022/06/14 00:21:12;;;;;;;2.10;1.53;;;14.80;99.90;;;;;;5055985;28;20440;-37
2022/06/14 00:23:40;;;;;;;10.83;1.87;;;14.70;99.90;;;;;;5055637;28;20472;-39
2022/06/14 00:26:11;;;;;;;3.67;1.43;;;14.70;99.90;;;;;;5055419;28;20436;-37
2022/06/14 00:28:40;;;;;;;2.53;1.27;;;14.60;99.90;;;;;;5053101;28;20516;-39
2022/06/14 00:31:10;;;;;;;2.53;1.50;;;14.60;99.90;;;;;;5041483;28;21074;-38
2022/06/14 00:33:38;;;;;;;11.70;1.63;;;14.60;99.90;;;;;;5055405;28;20467;-37
2022/06/14 00:36:07;;;;;;;2.67;1.40;;;14.60;99.90;;;;;;5055658;28;20484;-43
2022/06/14 00:38:36;;;;;;;2.20;1.40;;;14.60;99.90;;;;;;5055774;28;20436;-42
2022/06/14 00:41:04;;;;;;;5.40;1.53;;;14.60;99.90;;;;;;5055881;28;20448;-50
2022/06/14 00:43:32;;;;;;;2.70;1.43;;;14.60;99.90;;;;;;5043301;28;20440;-40
2022/06/14 00:46:15;;;;;;;2.50;1.60;;;14.50;99.90;;;;;;5050103;28;20476;-39
2022/06/14 00:48:54;;;;;;;5.67;1.73;;;14.50;99.90;;;;;;5044181;28;20448;-38
2022/06/14 00:51:26;;;;;;;9.00;1.80;;;14.50;99.90;;;;;;5055480;28;20440;-38
2022/06/14 00:53:57;;;;;;;1.50;1.00;;;14.50;99.90;;;;;;5055375;28;20425;-39
2022/06/14 00:56:29;;;;;;;2.23;1.40;;;14.50;99.90;;;;;;5055594;28;20436;-38
2022/06/14 00:59:01;;;;;;;2.73;1.40;;;14.50;99.90;;;;;;5055594;28;20443;-37
2022/06/14 01:01:33;;;;;;;1.60;1.10;;;14.40;99.90;;;;;;5055660;28;20577;-38
2022/06/14 01:04:06;;;;;;;4.00;1.30;;;14.40;99.90;;;;;;5051734;28;20432;-38
2022/06/14 01:06:40;;;;;;;3.20;1.47;;;14.30;99.90;;;;;;5042500;28;20523;-39
2022/06/14 01:09:10;;;;;;;3.97;1.87;;;14.30;99.90;;;;;;5055342;28;20464;-40
2022/06/14 01:11:42;;;;;;;6.70;1.30;;;14.20;99.90;;;;;;5055207;28;20464;-42
2022/06/14 01:14:11;;;;;;;3.60;1.50;;;14.20;99.90;;;;;;5054376;28;20416;-45
2022/06/14 01:16:38;;;;;;;3.73;1.53;;;14.20;99.90;;;;;;5041337;28;20433;-41
2022/06/14 01:19:15;;;;;;;1.90;1.13;;;14.20;99.90;;;;;;5056001;28;20436;-39
2022/06/14 01:21:42;;;;;;;3.60;1.40;;;14.20;99.90;;;;;;5049063;28;20428;-39
2022/06/14 01:24:10;;;;;;;3.63;1.80;;;14.10;99.90;;;;;;5050132;28;20420;-40
2022/06/14 01:26:38;;;;;;;3.00;1.20;;;14.10;99.90;;;;;;5047032;28;20444;-38
2022/06/14 01:29:07;;;;;;;2.80;1.43;;;14.00;99.90;;;;;;5058129;28;20483;-40
2022/06/14 01:31:34;;;;;;;3.83;1.60;;;14.00;99.90;;;;;;5058832;28;20444;-40
2022/06/14 01:34:05;;;;;;;3.10;1.37;;;13.90;99.90;;;;;;5058199;28;20468;-39
2022/06/14 01:36:35;;;;;;;3.50;1.70;;;13.80;99.90;;;;;;5058388;28;20424;-37
2022/06/14 01:39:09;;;;;;;2.03;1.40;;;13.80;99.90;;;;;;5058370;28;20432;-39
2022/06/14 01:42:00;;;;;;;2.33;1.60;;;13.80;99.90;;;;;;5058346;28;20451;-38
2022/06/14 01:44:40;;;;;;;2.83;1.47;;;13.70;99.90;;;;;;5058269;28;20463;-38
2022/06/14 01:47:22;;;;;;;2.53;1.30;;;13.80;99.90;;;;;;5058513;28;20424;-38
2022/06/14 01:53:02;;;;;;;2.17;1.20;;;13.80;99.90;;;;;;5038533;28;20409;-35
2022/06/14 01:55:36;;;;;;;5.00;1.43;;;13.80;99.90;;;;;;5037963;28;20476;-38
2022/06/14 01:58:16;;;;;;;5.17;1.70;;;13.70;99.90;;;;;;5038514;28;20429;-38
2022/06/14 02:00:51;;;;;;;2.93;1.60;;;13.70;99.90;;;;;;5037432;28;21043;-37
2022/06/14 02:06:18;;;;;;;6.27;1.90;;;13.60;99.90;;;;;;5037979;28;20472;-37
2022/06/14 02:08:52;;;;;;;4.80;2.13;;;13.60;99.90;;;;;;5037591;28;20434;-38
2022/06/14 02:11:24;;;;;;;2.47;1.20;;;13.50;99.90;;;;;;5037380;28;20499;-38
2022/06/14 02:13:59;;;;;;;2.00;1.40;;;13.50;99.90;;;;;;5037249;28;20416;-37
2022/06/14 02:16:33;;;;;;;8.73;3.63;;;13.50;99.90;;;;;;5037872;28;20516;-35
2022/06/14 02:19:06;;;;;;;4.37;1.90;;;13.40;99.90;;;;;;5038060;28;20749;-36
2022/06/14 02:21:38;;;;;;;2.10;1.37;;;13.40;99.90;;;;;;5037324;28;20483;-39
2022/06/14 02:24:13;;;;;;;4.10;1.63;;;13.50;99.90;;;;;;5037553;28;20489;-38
2022/06/14 02:26:46;;;;;;;4.60;1.67;;;13.50;99.90;;;;;;5037019;28;20464;-39
2022/06/14 02:29:20;;;;;;;2.20;1.67;;;13.50;99.90;;;;;;5037374;28;20493;-42
2022/06/14 02:31:53;;;;;;;3.20;1.40;;;13.50;99.90;;;;;;5037525;28;20469;-47
2022/06/14 02:34:28;;;;;;;3.27;1.53;;;13.50;99.90;;;;;;5036700;28;20481;-47
2022/06/14 02:37:01;;;;;;;3.37;1.37;;;13.40;99.90;;;;;;5036711;28;20472;-37
2022/06/14 02:39:33;;;;;;;5.10;1.50;;;13.30;99.90;;;;;;5037680;28;20421;-40
2022/06/14 02:42:05;;;;;;;2.10;1.43;;;13.20;99.90;;;;;;5037804;28;20433;-38
2022/06/14 02:44:38;;;;;;;4.60;1.50;;;13.20;99.90;;;;;;5037568;28;20469;-38
2022/06/14 02:47:10;;;;;;;5.30;1.63;;;13.20;99.90;;;;;;5031698;28;20500;-42
2022/06/14 02:49:43;;;;;;;2.50;1.33;;;13.20;99.90;;;;;;5029503;28;20481;-39
2022/06/14 02:52:15;;;;;;;6.17;2.03;;;13.20;99.90;;;;;;5035912;28;20452;-42
2022/06/14 02:54:46;;;;;;;5.63;2.00;;;13.20;99.90;;;;;;5035738;28;20429;-43
2022/06/14 02:57:20;;;;;;;1.97;1.70;;;13.20;99.90;;;;;;5036305;28;20456;-37
2022/06/14 02:59:56;;;;;;;6.90;2.00;;;13.20;99.90;;;;;;5036291;28;20422;-36
2022/06/14 03:02:27;;;;;;;5.07;1.93;;;13.30;99.90;;;;;;5035533;28;20604;-36
2022/06/14 03:05:07;;;;;;;4.23;1.57;;;13.30;99.90;;;;;;5037037;28;20529;-38
2022/06/14 03:07:39;;;;;;;9.80;1.83;;;13.20;99.90;;;;;;5036799;28;20429;-39
2022/06/14 03:10:08;;;;;;;6.03;2.30;;;13.20;99.90;;;;;;5036439;28;20485;-37
2022/06/14 03:12:43;;;;;;;4.63;1.30;;;13.30;99.90;;;;;;5037091;28;20461;-42
2022/06/14 03:15:19;;;;;;;5.00;1.80;;;13.20;99.90;;;;;;5036686;28;20437;-40
2022/06/14 03:18:01;;;;;;;3.80;1.73;;;13.20;99.90;;;;;;5036454;28;20487;-36
2022/06/14 03:20:41;;;;;;;8.50;1.93;;;13.10;99.90;;;;;;5036989;28;20477;-38
2022/06/14 03:23:17;;;;;;;2.33;1.30;;;13.10;99.90;;;;;;5037170;28;20460;-36
2022/06/14 03:25:55;;;;;;;4.67;1.87;;;13.10;99.90;;;;;;5037089;28;20425;-39
2022/06/14 03:28:26;;;;;;;4.57;1.80;;;13.10;99.90;;;;;;5036899;28;20413;-38
2022/06/14 03:31:03;;;;;;;5.03;1.50;;;13.10;99.90;;;;;;5036733;28;20492;-43
2022/06/14 03:33:37;;;;;;;3.83;1.70;;;13.00;99.90;;;;;;5036170;28;20484;-44
2022/06/14 03:36:06;;;;;;;3.00;1.73;;;13.00;99.90;;;;;;5037045;28;20445;-37
2022/06/14 03:38:36;;;;;;;3.10;2.47;;;13.00;99.90;;;;;;5036744;28;20429;-40
2022/06/14 03:41:05;;;;;;;3.23;2.10;;;13.00;99.90;;;;;;5036922;28;20487;-40
2022/06/14 03:43:36;;;;;;;10.67;2.90;;;13.00;99.90;;;;;;5036876;28;20477;-37
2022/06/14 03:46:11;;;;;;;5.17;2.00;;;13.00;99.90;;;;;;5036351;28;20433;-41
2022/06/14 03:48:44;;;;;;;3.83;2.13;;;13.00;99.90;;;;;;5036623;28;20452;-39
2022/06/14 03:51:23;;;;;;;4.83;2.13;;;13.00;99.90;;;;;;5036593;28;20573;-39
2022/06/14 03:54:07;;;;;;;6.30;1.60;;;13.00;99.90;;;;;;5036578;28;20437;-38
2022/06/14 03:56:57;;;;;;;3.83;2.00;;;13.10;99.90;;;;;;5036498;28;20473;-39
2022/06/14 03:59:44;;;;;;;3.87;1.80;;;13.10;99.90;;;;;;5036086;28;20481;-36
2022/06/14 04:02:22;;;;;;;2.37;1.67;;;13.00;99.90;;;;;;5035911;28;20468;-42
2022/06/14 04:04:59;;;;;;;5.37;1.50;;;13.00;99.90;;;;;;5036484;28;20469;-35
2022/06/14 04:07:36;;;;;;;5.60;2.17;;;13.00;99.90;;;;;;5036167;28;20469;-37
2022/06/14 04:10:14;;;;;;;3.23;1.73;;;12.90;99.90;;;;;;5036548;28;20508;-38
2022/06/14 04:12:48;;;;;;;5.33;2.10;;;12.90;99.90;;;;;;5036688;28;20480;-34
2022/06/14 04:15:26;;;;;;;9.93;2.20;;;12.90;99.90;;;;;;5036429;28;20486;-39
2022/06/14 04:20:57;;;;;;;3.30;1.67;;;12.70;99.90;;;;;;5034138;28;20441;-36
2022/06/14 04:23:35;;;;;;;8.27;3.33;;;12.70;99.90;;;;;;5036028;28;20426;-36
2022/06/14 04:26:09;;;;;;;3.10;1.43;;;12.80;99.90;;;;;;5035800;28;20429;-38
2022/06/14 04:28:43;;;;;;;2.53;2.07;;;12.80;99.90;;;;;;5036085;28;20449;-38
2022/06/14 04:31:15;;;;;;;3.63;2.20;;;12.80;99.90;;;;;;5035459;28;20477;-35
2022/06/14 04:33:48;;;;;;;4.30;2.03;;;12.80;99.90;;;;;;5035947;28;20445;-37
2022/06/14 04:36:19;;;;;;;1.73;1.47;;;12.80;99.90;;;;;;5035646;28;20431;-38
2022/06/14 04:38:50;;;;;;;5.70;2.00;;;12.80;99.90;;;;;;5035633;28;20497;-36
2022/06/14 04:41:22;;;;;;;4.03;1.60;;;12.90;99.90;;;;;;5034997;28;20437;-38
2022/06/14 04:43:53;;;;;;;3.10;1.30;;;12.90;99.90;;;;;;5035065;28;20437;-41
2022/06/14 04:46:23;;;;;;;6.20;1.70;;;13.00;99.90;;;;;;5035762;28;20449;-37
2022/06/14 04:48:56;;;;;;;3.03;1.40;;;13.10;99.90;;;;;;5035186;28;20465;-37
2022/06/14 04:51:28;;;;;;;5.13;2.20;;;13.20;99.90;;;;;;5035189;28;20469;-41
2022/06/14 04:54:01;;;;;;;7.50;1.90;;;13.30;99.90;;;;;;5021253;28;20455;-40
2022/06/14 04:56:33;;;;;;;6.20;1.77;;;13.30;99.90;;;;;;5036550;28;20444;-38
2022/06/14 04:59:06;;;;;;;7.27;4.03;;;13.50;99.90;;;;;;5038951;28;20425;-37
2022/06/14 05:01:36;;;;;;;5.23;1.83;;;13.50;99.90;;;;;;5036214;28;20417;-40
2022/06/14 05:04:08;;;;;;;9.40;3.27;;;13.50;99.90;;;;;;5028601;28;20452;-52
2022/06/14 05:06:41;;;;;;;6.17;1.90;;;13.60;99.90;;;;;;5037594;28;20467;-39
2022/06/14 05:09:14;;;;;;;8.07;2.00;;;13.60;99.90;;;;;;5037482;28;20417;-38
2022/06/14 05:11:44;;;;;;;5.70;2.03;;;13.80;99.90;;;;;;5034334;28;20501;-37
2022/06/14 05:14:18;;;;;;;7.50;2.03;;;13.90;99.90;;;;;;5037053;28;20458;-39
2022/06/14 05:16:49;;;;;;;4.30;1.37;;;14.00;99.90;;;;;;5036020;28;20617;-40
2022/06/14 05:19:23;;;;;;;13.33;4.20;;;14.00;99.90;;;;;;5037180;28;20561;-34
2022/06/14 05:21:55;;;;;;;5.87;1.80;;;14.10;99.90;;;;;;5036730;28;20433;-37
2022/06/14 05:24:23;;;;;;;4.97;2.10;;;14.10;99.90;;;;;;5037493;28;20409;-37
2022/06/14 05:27:04;;;;;;;6.40;1.70;;;14.10;99.90;;;;;;5035089;28;20520;-37
2022/06/14 05:29:38;;;;;;;7.63;2.27;;;14.30;99.90;;;;;;5036479;28;20501;-34
2022/06/14 05:32:13;;;;;;;8.53;2.00;;;14.30;99.90;;;;;;5037102;28;20485;-41
2022/06/14 05:34:58;;;;;;;3.77;1.93;;;14.30;99.90;;;;;;5037690;28;20424;-38
2022/06/14 05:37:31;;;;;;;6.23;2.10;;;14.30;99.90;;;;;;5037549;28;20448;-42
2022/06/14 05:40:03;;;;;;;5.67;2.07;;;14.30;99.90;;;;;;5036271;28;20485;-39
2022/06/14 05:42:34;;;;;;;9.63;2.00;;;14.20;99.90;;;;;;5037246;28;20454;-38
2022/06/14 05:45:06;;;;;;;8.67;2.37;;;14.20;99.90;;;;;;5037668;28;20452;-40
2022/06/14 05:47:37;;;;;;;5.10;1.80;;;14.20;99.90;;;;;;5035894;28;20453;-39
2022/06/14 05:50:10;;;;;;;3.50;1.90;;;14.20;99.90;;;;;;5036206;28;20457;-37
2022/06/14 05:52:44;;;;;;;4.20;2.30;;;14.20;99.90;;;;;;5035997;28;20456;-37
2022/06/14 05:55:16;;;;;;;5.40;2.40;;;14.40;99.90;;;;;;5037439;28;20453;-37
2022/06/14 05:57:48;;;;;;;6.90;2.63;;;14.40;99.90;;;;;;5037492;28;20493;-38
2022/06/14 06:00:20;;;;;;;6.30;2.50;;;14.50;99.90;;;;;;5037712;28;20440;-37
2022/06/14 06:02:52;;;;;;;2.93;1.33;;;14.50;99.90;;;;;;5037613;28;20420;-40
2022/06/14 06:05:24;;;;;;;3.40;1.47;;;14.60;99.90;;;;;;5037417;28;20449;-37
2022/06/14 06:08:05;;;;;;;5.80;1.77;;;14.60;99.90;;;;;;5037493;28;20490;-36
2022/06/14 06:10:37;;;;;;;5.50;1.97;;;14.60;99.90;;;;;;5037280;28;20748;-42
2022/06/14 06:13:09;;;;;;;4.23;1.60;;;14.60;99.90;;;;;;5036939;28;20465;-40
2022/06/14 06:15:42;;;;;;;4.17;2.37;;;14.60;99.90;;;;;;5037025;28;20426;-39
2022/06/14 06:18:14;;;;;;;7.50;2.10;;;14.80;99.90;;;;;;5036956;28;20544;-37
2022/06/14 06:20:48;;;;;;;4.67;1.80;;;14.90;99.90;;;;;;5037984;28;20473;-38
2022/06/14 06:23:19;;;;;;;3.97;2.07;;;14.90;99.90;;;;;;5037880;28;20549;-36
2022/06/14 06:25:48;;;;;;;7.50;2.53;;;15.00;99.90;;;;;;5038226;28;20442;-36
2022/06/14 06:28:23;;;;;;;10.40;2.00;;;15.10;99.90;;;;;;5037860;28;20481;-41
2022/06/14 06:30:55;;;;;;;2.97;1.70;;;15.30;99.90;;;;;;5037387;28;20465;-39
2022/06/14 06:33:24;;;;;;;3.70;1.87;;;15.60;99.90;;;;;;5037361;28;20465;-38
2022/06/14 06:35:59;;;;;;;15.20;2.53;;;15.50;99.90;;;;;;5037274;28;20441;-40
2022/06/14 06:38:36;;;;;;;4.00;1.63;;;15.50;99.90;;;;;;5037472;28;20500;-42
2022/06/14 06:43:54;;;;;;;4.23;1.73;;;15.30;99.90;;;;;;5032781;28;20532;-38
2022/06/14 06:46:25;;;;;;;4.63;2.13;;;15.30;99.90;;;;;;5027932;28;20432;-43
2022/06/14 06:48:57;;;;;;;10.93;2.93;;;15.30;99.90;;;;;;5036371;28;20512;-52
2022/06/14 06:51:34;;;;;;;3.17;2.03;;;15.40;99.90;;;;;;5036219;28;20609;-38
2022/06/14 06:54:06;;;;;;;9.83;2.13;;;15.50;99.90;;;;;;5037195;28;20489;-38
2022/06/14 06:56:37;;;;;;;5.33;1.77;;;15.70;99.90;;;;;;5036628;28;20437;-43
2022/06/14 06:59:11;;;;;;;6.63;1.90;;;15.90;99.90;;;;;;5037266;28;20529;-38
2022/06/14 07:01:40;;;;;;;4.93;2.00;;;15.90;99.90;;;;;;5036971;28;20449;-40
2022/06/14 07:04:15;;;;;;;5.10;2.00;;;16.10;99.90;;;;;;5025901;28;20743;-38
2022/06/14 07:06:47;;;;;;;5.27;1.90;;;16.00;99.90;;;;;;5035660;28;20409;-35
2022/06/14 07:09:23;;;;;;;5.43;2.47;;;16.10;99.90;;;;;;5036482;28;20469;-38
2022/06/14 07:11:56;;;;;;;5.40;1.77;;;16.20;99.90;;;;;;5036406;28;20516;-36
2022/06/14 07:14:26;;;;;;;4.57;1.80;;;16.20;99.90;;;;;;5035152;28;20555;-36
2022/06/14 07:17:02;;;;;;;9.57;2.10;;;16.30;99.90;;;;;;5035451;28;20480;-38
2022/06/14 07:19:37;;;;;;;4.90;1.60;;;16.40;99.90;;;;;;5034516;28;20545;-36
2022/06/14 07:22:12;;;;;;;3.37;1.53;;;16.50;99.90;;;;;;5035304;28;20430;-39
2022/06/14 07:24:51;;;;;;;6.23;2.23;;;16.60;99.90;;;;;;5036560;28;20521;-43
2022/06/14 07:27:23;;;;;;;7.10;1.60;;;16.70;99.90;;;;;;5036804;28;20437;-42
2022/06/14 07:29:57;;;;;;;5.73;1.90;;;16.80;99.90;;;;;;5035825;28;20475;-36
2022/06/14 07:32:28;;;;;;;5.93;1.20;;;16.80;99.90;;;;;;5035745;28;20476;-39
2022/06/14 07:34:56;;;;;;;5.10;2.20;;;16.80;99.90;;;;;;5035700;28;20538;-40
2022/06/14 07:37:32;;;;;;;3.57;1.77;;;16.90;99.90;;;;;;5036165;28;20535;-44
2022/06/14 07:40:03;;;;;;;7.83;2.47;;;16.80;99.90;;;;;;5035795;28;20520;-46
2022/06/14 07:42:38;;;;;;;15.53;2.63;;;16.80;99.90;;;;;;5035795;28;20465;-38
2022/06/14 07:45:10;;;;;;;4.03;1.53;;;16.90;99.90;;;;;;5035483;28;20468;-40
2022/06/14 07:47:46;;;;;;;6.20;1.80;;;17.00;99.90;;;;;;5035894;28;20449;-43
2022/06/14 07:50:18;;;;;;;7.53;1.87;;;17.10;99.90;;;;;;5035020;28;20503;-38
2022/06/14 07:52:49;;;;;;;7.80;2.50;;;17.20;99.90;;;;;;5035150;28;20521;-46
2022/06/14 07:55:22;;;;;;;4.90;1.87;;;17.30;99.90;;;;;;5035022;28;20564;-37
2022/06/14 07:57:54;;;;;;;4.20;1.77;;;17.40;99.90;;;;;;5035572;28;20436;-39
2022/06/14 08:03:13;;;;;;;4.70;2.77;;;17.60;99.90;;;;;;5035268;28;20433;-42
2022/06/14 08:05:45;;;;;;;7.30;1.60;;;17.50;99.90;;;;;;5035383;28;20437;-37
2022/06/14 08:08:19;;;;;;;5.00;1.63;;;17.50;99.90;;;;;;5035410;28;20482;-40
2022/06/14 08:10:52;;;;;;;4.70;1.70;;;17.50;99.90;;;;;;5034430;28;20481;-39
2022/06/14 08:13:24;;;;;;;2.83;1.60;;;17.50;99.90;;;;;;5035230;28;20444;-36
2022/06/14 08:15:58;;;;;;;8.73;2.50;;;17.50;99.90;;;;;;5035662;28;20501;-38
2022/06/14 08:18:29;;;;;;;2.87;1.70;;;17.50;99.90;;;;;;5035630;28;20501;-39
2022/06/14 08:21:00;;;;;;;4.00;2.10;;;17.50;99.90;;;;;;5035333;28;20438;-39
2022/06/14 08:23:34;;;;;;;5.43;2.10;;;17.60;99.90;;;;;;5035312;28;20437;-36
2022/06/14 08:26:06;;;;;;;4.03;1.70;;;17.60;99.90;;;;;;5035704;28;20453;-35
2022/06/14 08:28:40;;;;;;;9.90;1.80;;;17.70;99.90;;;;;;5035321;28;20485;-36
2022/06/14 08:31:17;;;;;;;3.20;1.43;;;17.70;99.90;;;;;;5035449;28;20527;-37
2022/06/14 08:33:49;;;;;;;4.40;1.40;;;17.90;99.90;;;;;;5035506;28;20429;-40
2022/06/14 08:36:21;;;;;;;4.90;1.63;;;18.20;99.90;;;;;;5034984;28;20430;-38
2022/06/14 08:38:54;;;;;;;7.87;1.60;;;18.40;99.90;;;;;;5035201;28;20522;-38
2022/06/14 08:41:51;;;;;;;4.20;2.07;;;18.60;99.90;;;;;;5035226;28;20476;-40
2022/06/14 08:44:21;;;;;;;7.27;2.10;;;18.80;99.90;;;;;;5022333;28;20484;-38
2022/06/14 08:47:02;;;;;;;2.23;1.43;;;18.90;99.90;;;;;;5035267;28;20476;-36
2022/06/14 08:49:45;;;;;;;6.37;2.20;;;18.90;99.90;;;;;;5019687;28;20461;-39
2022/06/14 08:52:50;;;;;;;3.53;1.20;;;19.10;99.90;;;;;;5034239;28;20481;-39
2022/06/14 08:55:47;;;;;;;2.30;1.27;;;19.60;99.70;;;;;;5034634;28;20468;-37
2022/06/14 08:58:41;;;;;;;3.50;1.90;;;20.10;97.60;;;;;;5022093;28;20469;-36
2022/06/14 09:01:17;;;;;;;3.63;1.30;;;21.50;95.00;;;;;;5034555;28;20529;-39
2022/06/14 09:04:09;;;;;;;9.40;2.40;;;22.90;92.40;;;;;;5020784;28;20435;-38
2022/06/14 09:07:17;;;;;;;7.33;1.87;;;24.50;86.90;;;;;;5034105;28;20433;-37
2022/06/14 09:10:10;;;;;;;5.43;1.37;;;26.10;72.10;;;;;;5033994;28;20452;-39
2022/06/14 09:13:02;;;;;;;2.10;1.40;;;26.70;64.10;;;;;;5029016;28;20476;-40
2022/06/14 09:16:08;;;;;;;5.13;1.83;;;26.50;62.10;;;;;;5026021;28;20441;-38
2022/06/14 09:18:41;;;;;;;4.17;1.73;;;25.90;62.30;;;;;;5034491;28;20859;-40
2022/06/14 09:21:36;;;;;;;5.37;1.60;;;24.90;61.70;;;;;;5026628;28;20532;-46
2022/06/14 09:24:30;;;;;;;4.83;1.50;;;23.60;62.90;;;;;;5034601;28;20422;-42
2022/06/14 09:27:08;;;;;;;3.73;1.47;;;22.50;65.40;;;;;;5034935;28;20437;-38
2022/06/14 09:30:03;;;;;;;4.73;1.60;;;21.70;67.60;;;;;;5034614;28;20501;-41
2022/06/14 09:33:13;;;;;;;5.07;1.73;;;20.90;70.50;;;;;;5034458;28;20465;-38
2022/06/14 09:36:16;;;;;;;2.90;1.67;;;20.30;72.70;;;;;;5021832;28;20477;-38
2022/06/14 09:39:13;;;;;;;4.43;1.80;;;19.80;74.70;;;;;;5034371;28;20444;-38
2022/06/14 09:42:10;;;;;;;6.40;2.17;;;19.40;79.50;;;;;;5033584;28;20441;-37
2022/06/14 09:45:03;;;;;;;12.80;1.93;;;19.00;82.60;;;;;;5004834;28;20417;-38
2022/06/14 09:47:58;;;;;;;3.77;1.50;;;18.60;84.70;;;;;;5038131;28;20429;-37
2022/06/14 09:51:09;;;;;;;5.57;1.83;;;18.30;87.00;;;;;;5038198;28;20457;-36
2022/06/14 09:54:07;;;;;;;6.37;1.40;;;18.10;89.40;;;;;;5038768;28;20460;-45
2022/06/14 09:56:53;;;;;;;5.63;1.87;;;18.10;90.70;;;;;;5037548;28;20529;-39
2022/06/14 09:59:53;;;;;;;6.27;1.50;;;18.10;91.20;;;;;;5076065;23;20563;-41
2022/06/14 10:02:34;;;;;;;3.60;1.80;;;18.20;90.30;;;;;;5058151;28;20478;-47
2022/06/14 10:05:32;;;;;;;4.43;1.50;;;18.30;90.50;;;;;;5058128;28;20432;-35
2022/06/14 10:08:23;;;;;;;8.67;2.00;;;18.50;90.00;;;;;;5057036;28;20510;-38
2022/06/14 10:11:04;;;;;;;7.00;1.87;;;18.60;88.00;;;;;;5044416;28;20463;-38
2022/06/14 10:13:52;;;;;;;4.57;1.50;;;18.60;87.70;;;;;;5055764;28;20478;-38
2022/06/14 10:16:37;;;;;;;2.33;1.20;;;18.80;87.10;;;;;;5057946;28;20531;-36
2022/06/14 10:19:22;;;;;;;6.67;1.47;;;18.80;86.60;;;;;;5057227;28;20468;-37
2022/06/14 10:22:00;;;;;;;2.80;1.77;;;18.80;86.80;;;;;;5056552;28;20468;-36
2022/06/14 10:24:32;;;;;;;3.37;1.47;;;18.70;88.80;;;;;;5052471;28;20425;-38
2022/06/14 10:30:37;;;;;;;4.40;1.40;;;18.80;86.80;;;;;;5057015;28;20416;-37
2022/06/14 10:33:43;;;;;;;5.17;2.40;;;18.90;87.00;;;;;;5056858;28;20484;-37
2022/06/14 10:36:26;;;;;;;9.43;1.63;;;18.90;87.00;;;;;;5048404;28;20490;-38
2022/06/14 10:39:23;;;;;;;6.53;1.87;;;18.80;87.10;;;;;;5057347;28;20432;-37
2022/06/14 10:41:55;;;;;;;4.47;1.40;;;18.70;87.80;;;;;;5047768;28;20548;-36
2022/06/14 10:44:31;;;;;;;5.23;1.87;;;18.60;88.90;;;;;;5052176;28;20523;-39
2022/06/14 10:47:07;;;;;;;4.20;1.47;;;18.70;90.00;;;;;;5056360;28;20463;-37
2022/06/14 10:49:59;;;;;;;7.80;1.93;;;19.10;89.70;;;;;;5057131;28;20475;-40
2022/06/14 10:52:45;;;;;;;3.10;1.90;;;19.70;86.40;;;;;;5046017;28;20498;-40
2022/06/14 10:55:42;;;;;;;5.83;1.80;;;19.80;85.20;;;;;;5056583;28;20464;-39
2022/06/14 10:58:27;;;;;;;3.80;1.90;;;20.10;83.80;;;;;;5056282;28;20447;-38
2022/06/14 11:00:59;;;;;;;2.80;1.80;;;20.40;83.60;;;;;;5056429;28;20437;-39
2022/06/14 11:03:44;;;;;;;7.10;2.20;;;20.50;82.60;;;;;;5056493;28;20516;-37
2022/06/14 11:06:43;;;;;;;3.40;2.10;;;20.40;81.30;;;;;;5055587;28;20476;-39
2022/06/14 11:09:23;;;;;;;4.27;1.57;;;20.20;81.90;;;;;;5055510;28;20447;-37
2022/06/14 11:12:20;;;;;;;4.07;1.70;;;20.10;82.50;;;;;;5042604;28;20495;-39
2022/06/14 11:14:59;;;;;;;2.97;1.40;;;20.00;82.90;;;;;;5055788;28;20444;-38
2022/06/14 11:17:48;;;;;;;2.07;1.30;;;19.80;82.90;;;;;;5043515;28;20472;-38
2022/06/14 11:20:28;;;;;;;4.80;2.17;;;19.70;83.70;;;;;;5053982;28;20434;-39
2022/06/14 11:23:02;;;;;;;1.73;1.57;;;19.60;83.90;;;;;;5056322;28;20520;-38
2022/06/14 11:25:37;;;;;;;4.60;2.80;;;19.60;83.70;;;;;;5039942;28;20492;-38
2022/06/14 11:28:15;;;;;;;2.60;1.60;;;19.80;83.10;;;;;;5038258;28;20459;-37
2022/06/14 11:30:49;;;;;;;3.13;1.60;;;19.80;81.90;;;;;;5050895;28;20515;-41
2022/06/14 11:33:29;;;;;;;2.60;1.50;;;20.00;83.60;;;;;;5047504;28;20503;-38
2022/06/14 11:36:11;;;;;;;2.67;1.67;;;20.00;82.10;;;;;;5039977;28;20439;-37
2022/06/14 11:39:07;;;;;;;7.93;2.50;;;19.80;84.20;;;;;;5056323;28;20452;-38
2022/06/14 11:41:41;;;;;;;4.07;1.50;;;19.90;85.20;;;;;;5055224;28;20474;-38
2022/06/14 11:44:30;;;;;;;5.40;1.80;;;20.20;82.40;;;;;;5055106;28;20448;-36
2022/06/14 11:47:03;;;;;;;5.10;1.53;;;20.50;81.00;;;;;;5054376;28;20968;-38
2022/06/14 11:49:38;;;;;;;5.23;2.00;;;20.50;79.10;;;;;;5054494;28;20484;-38
2022/06/14 11:52:19;;;;;;;10.23;3.33;;;20.40;79.90;;;;;;5054548;28;20488;-38
2022/06/14 11:54:56;;;;;;;4.57;1.97;;;20.30;83.80;;;;;;5054658;28;20498;-41
2022/06/14 11:57:30;;;;;;;2.70;1.30;;;20.20;81.70;;;;;;5042776;28;20471;-36
2022/06/14 12:00:19;;;;;;;4.03;1.40;;;20.40;82.50;;;;;;5054727;28;20448;-37
2022/06/14 12:03:07;;;;;;;3.93;1.30;;;20.80;80.20;;;;;;5055135;28;20468;-37
2022/06/14 12:05:43;;;;;;;4.00;1.60;;;20.90;79.20;;;;;;5054432;28;20431;-37
2022/06/14 12:08:34;;;;;;;6.53;1.47;;;20.80;79.00;;;;;;5054695;28;20471;-36
2022/06/14 12:11:13;;;;;;;3.07;1.40;;;20.70;78.50;;;;;;5039456;28;20428;-37
2022/06/14 12:14:07;;;;;;;3.80;1.60;;;20.80;78.70;;;;;;5054798;28;20483;-39
2022/06/14 12:16:39;;;;;;;2.93;1.40;;;20.70;77.20;;;;;;5053694;28;20441;-38
2022/06/14 12:19:09;;;;;;;2.67;1.40;;;20.40;77.20;;;;;;5054908;28;20432;-38
2022/06/14 12:28:04;;;;;;;2.73;1.20;;;20.40;78.50;;;;;;5113813;28;20484;-44
2022/06/14 12:30:36;;;;;;;6.80;1.60;;;20.30;78.00;;;;;;5115040;28;20413;-42
2022/06/14 12:33:11;;;;;;;3.33;1.20;;;20.40;78.30;;;;;;5113882;28;20488;-42
2022/06/14 12:35:46;;;;;;;3.33;1.40;;;20.40;77.90;;;;;;5114706;28;20459;-40
2022/06/14 12:38:18;;;;;;;4.00;1.57;;;20.30;78.90;;;;;;5114118;28;20483;-39
2022/06/14 12:40:49;;;;;;;3.43;1.97;;;20.40;80.00;;;;;;5114482;28;20528;-39
2022/06/14 12:43:21;;;;;;;4.17;1.40;;;20.60;77.10;;;;;;5115142;28;20468;-40
2022/06/14 12:45:51;;;;;;;5.83;1.50;;;20.60;76.80;;;;;;5114737;28;20426;-36
2022/06/14 12:48:42;;;;;;;9.90;1.73;;;20.50;77.10;;;;;;5108704;28;20493;-40
2022/06/14 12:51:15;;;;;;;7.27;2.53;;;20.50;77.40;;;;;;5066391;28;20409;-38
2022/06/14 12:53:49;;;;;;;15.93;2.03;;;20.80;75.90;;;;;;5115030;28;20469;-35
2022/06/14 12:56:22;;;;;;;4.20;1.77;;;20.90;75.90;;;;;;5114830;28;20449;-38
2022/06/14 12:58:57;;;;;;;6.03;1.77;;;20.90;75.10;;;;;;5114689;28;20481;-45
2022/06/14 13:01:41;;;;;;;6.07;1.77;;;20.80;75.50;;;;;;5113594;28;20440;-37
2022/06/14 13:04:16;;;;;;;2.90;1.37;;;20.90;76.80;;;;;;5114486;28;20445;-44
2022/06/14 13:07:07;;;;;;;2.27;1.43;;;20.90;75.00;;;;;;5115221;28;20421;-37
2022/06/14 13:09:46;;;;;;;4.03;1.50;;;20.90;75.80;;;;;;5114162;28;20900;-37
2022/06/14 13:12:20;;;;;;;4.80;1.70;;;20.90;76.00;;;;;;5098498;28;20418;-39
2022/06/14 13:14:56;;;;;;;4.00;2.33;;;20.90;76.30;;;;;;5114753;28;20467;-39
2022/06/14 13:17:39;;;;;;;12.00;1.97;;;21.00;75.80;;;;;;5116277;28;20533;-40
2022/06/14 13:20:20;;;;;;;1.90;1.10;;;21.00;74.60;;;;;;5105510;28;20455;-38
2022/06/14 13:22:58;;;;;;;2.83;1.20;;;20.90;74.60;;;;;;5118322;28;20465;-36
2022/06/14 13:25:41;;;;;;;3.47;1.33;;;20.90;75.00;;;;;;5119060;28;20449;-42
2022/06/14 13:28:31;;;;;;;3.20;1.20;;;21.00;76.10;;;;;;5119045;28;20465;-41
2022/06/14 13:31:16;;;;;;;2.43;1.20;;;21.20;74.80;;;;;;5119198;28;20494;-39
2022/06/14 13:33:52;;;;;;;3.93;1.60;;;21.40;75.30;;;;;;5118419;28;20485;-37
2022/06/14 13:36:26;;;;;;;5.30;1.90;;;21.60;74.10;;;;;;5118421;28;20440;-39
2022/06/14 13:38:58;;;;;;;3.47;1.13;;;21.80;73.00;;;;;;5114608;28;20493;-37
2022/06/14 13:41:34;;;;;;;3.77;1.60;;;21.80;72.60;;;;;;5107774;28;20436;-38
2022/06/14 13:44:08;;;;;;;1.80;1.13;;;21.60;72.10;;;;;;5117686;28;20469;-39
2022/06/14 13:46:39;;;;;;;4.10;1.63;;;21.60;72.70;;;;;;5117765;28;20492;-38
2022/06/14 13:49:15;;;;;;;1.43;1.00;;;21.70;72.70;;;;;;5116518;28;20465;-38
2022/06/14 13:51:49;;;;;;;4.10;1.53;;;21.80;71.20;;;;;;5104456;28;20448;-38
2022/06/14 13:54:26;;;;;;;6.13;2.00;;;21.90;71.50;;;;;;5104127;28;20485;-38
2022/06/14 13:56:56;;;;;;;2.23;1.20;;;22.00;70.50;;;;;;5116719;28;20446;-38
2022/06/14 13:59:26;;;;;;;3.87;1.30;;;22.10;71.40;;;;;;5118087;28;20469;-38